Time;durP1;ratioP1;P1;durP2;ratioP2;P2;SDS_P1;SDS_P2;PMS_P1;PMS_P2;Temp;Humidity;BMP_temperature;BMP_pressure;BME280_temperature;BME280_humidity;BME280_pressure;Samples;Min_cycle;Max_cycle;Signal;HPM_P1;HPM_P2
2023/02/10 00:00:26;;;;;;;32.73;15.57;;;1.60;99.90;;;;;;4974268;28;20271;-85
2023/02/10 00:02:52;;;;;;;29.93;16.50;;;1.60;99.90;;;;;;4974373;28;20204;-85
2023/02/10 00:05:18;;;;;;;33.23;16.03;;;1.60;99.90;;;;;;4974275;28;20287;-85
2023/02/10 00:07:43;;;;;;;33.03;16.43;;;1.50;99.90;;;;;;4974057;28;20181;-85
2023/02/10 00:10:09;;;;;;;31.03;15.70;;;1.50;99.90;;;;;;4975697;28;20173;-85
2023/02/10 00:12:44;;;;;;;31.97;16.13;;;1.50;99.90;;;;;;4974296;28;20219;-84
2023/02/10 00:15:10;;;;;;;31.90;15.83;;;1.50;99.90;;;;;;4973944;28;20239;-85
2023/02/10 00:17:35;;;;;;;32.47;16.80;;;1.50;99.90;;;;;;4974314;28;20215;-85
2023/02/10 00:20:01;;;;;;;30.63;15.33;;;1.50;99.90;;;;;;4975272;28;20655;-85
2023/02/10 00:22:27;;;;;;;29.87;16.03;;;1.50;99.90;;;;;;4973679;28;20690;-85
2023/02/10 00:24:52;;;;;;;27.53;16.03;;;1.50;99.90;;;;;;4974066;28;20268;-85
2023/02/10 00:27:22;;;;;;;32.70;16.13;;;1.50;99.90;;;;;;4975984;28;20172;-86
2023/02/10 00:29:49;;;;;;;31.40;16.43;;;1.60;99.90;;;;;;4977854;28;20185;-87
2023/02/10 00:32:18;;;;;;;34.70;17.27;;;1.70;99.90;;;;;;4977843;28;20176;-85
2023/02/10 00:34:45;;;;;;;34.90;17.20;;;1.70;99.90;;;;;;4979179;28;20255;-86
2023/02/10 00:37:11;;;;;;;31.10;16.60;;;1.70;99.90;;;;;;4977908;28;20243;-84
2023/02/10 00:39:36;;;;;;;35.23;17.13;;;1.70;99.90;;;;;;4977833;28;20192;-84
2023/02/10 00:42:02;;;;;;;35.77;18.40;;;1.70;99.90;;;;;;4977877;28;20178;-84
2023/02/10 00:44:28;;;;;;;33.90;16.93;;;1.80;99.90;;;;;;4977830;28;20227;-84
2023/02/10 00:46:54;;;;;;;34.83;17.57;;;1.70;99.90;;;;;;4977849;28;20203;-84
2023/02/10 00:49:19;;;;;;;37.80;18.17;;;1.70;99.90;;;;;;4977507;28;20180;-84
2023/02/10 00:51:45;;;;;;;38.87;18.33;;;1.80;99.90;;;;;;4977416;28;20207;-84
2023/02/10 00:54:14;;;;;;;43.50;19.73;;;1.80;99.90;;;;;;4977848;28;20212;-85
2023/02/10 00:56:40;;;;;;;39.17;18.17;;;1.80;99.90;;;;;;4977813;28;20180;-85
2023/02/10 00:59:06;;;;;;;39.33;19.30;;;1.80;99.90;;;;;;4978358;28;20176;-85
2023/02/10 01:01:31;;;;;;;38.97;19.37;;;1.80;99.90;;;;;;4977691;28;20182;-85
2023/02/10 01:03:57;;;;;;;48.20;20.27;;;1.90;99.90;;;;;;4977400;28;20181;-83
2023/02/10 01:06:23;;;;;;;43.03;19.43;;;1.80;99.90;;;;;;4977475;28;20221;-86
2023/02/10 01:08:49;;;;;;;40.37;20.30;;;1.80;99.90;;;;;;4976834;28;20180;-85
2023/02/10 01:11:14;;;;;;;38.87;20.53;;;1.90;99.90;;;;;;4977934;28;20176;-85
2023/02/10 01:13:43;;;;;;;41.40;20.17;;;2.00;99.90;;;;;;4977125;28;20216;-86
2023/02/10 01:16:14;;;;;;;44.77;21.43;;;2.20;99.90;;;;;;4977774;28;20184;-88
2023/02/10 01:18:41;;;;;;;40.27;21.33;;;2.30;99.90;;;;;;4977765;28;20172;-88
2023/02/10 01:21:15;;;;;;;48.90;21.70;;;2.30;99.90;;;;;;4977401;28;20239;-87
2023/02/10 01:23:48;;;;;;;42.70;22.10;;;2.30;99.90;;;;;;4977218;28;20653;-87
2023/02/10 01:26:14;;;;;;;44.53;21.50;;;2.50;99.90;;;;;;4977708;28;20200;-85
2023/02/10 01:28:41;;;;;;;55.17;22.97;;;2.40;99.90;;;;;;4977205;28;20176;-85
2023/02/10 01:31:19;;;;;;;51.27;23.03;;;2.40;99.90;;;;;;4977171;28;20188;-85
2023/02/10 01:33:46;;;;;;;47.87;22.93;;;2.40;99.90;;;;;;4976845;28;20172;-85
2023/02/10 01:36:16;;;;;;;43.80;20.50;;;2.40;99.90;;;;;;4977289;28;20532;-86
2023/02/10 01:38:45;;;;;;;47.70;22.37;;;2.50;99.90;;;;;;4976683;28;20180;-86
2023/02/10 01:41:14;;;;;;;46.73;21.93;;;2.50;99.90;;;;;;4976943;28;20203;-84
2023/02/10 01:44:01;;;;;;;45.87;21.13;;;2.40;99.90;;;;;;4978038;28;20200;-85
2023/02/10 01:46:30;;;;;;;41.40;21.17;;;2.40;99.90;;;;;;4978208;28;20169;-84
2023/02/10 01:49:00;;;;;;;42.90;22.40;;;2.40;99.90;;;;;;4977912;28;20180;-84
2023/02/10 01:51:42;;;;;;;45.70;22.23;;;2.40;99.90;;;;;;4976640;28;20188;-85
2023/02/10 01:54:17;;;;;;;45.97;21.53;;;2.30;99.90;;;;;;4976541;28;20220;-85
2023/02/10 01:56:43;;;;;;;44.20;21.60;;;2.40;99.90;;;;;;4976525;28;20172;-86
2023/02/10 01:59:09;;;;;;;40.97;21.53;;;2.50;99.90;;;;;;4976633;28;20231;-86
2023/02/10 02:01:35;;;;;;;41.30;21.70;;;2.40;99.90;;;;;;4976430;28;20184;-84
2023/02/10 02:04:02;;;;;;;43.70;21.10;;;2.40;99.90;;;;;;4976548;28;20196;-85
2023/02/10 02:06:28;;;;;;;43.37;22.73;;;2.40;99.90;;;;;;4976429;28;20176;-84
2023/02/10 02:08:54;;;;;;;44.30;22.60;;;2.40;99.90;;;;;;4976322;28;20190;-86
2023/02/10 02:11:31;;;;;;;48.47;21.13;;;2.40;99.90;;;;;;4977799;28;20715;-84
2023/02/10 02:14:09;;;;;;;42.93;22.43;;;2.40;99.90;;;;;;4976368;28;20192;-85
2023/02/10 02:16:38;;;;;;;45.20;22.33;;;2.30;99.90;;;;;;4977329;28;20169;-84
2023/02/10 02:19:25;;;;;;;44.47;21.47;;;2.30;99.90;;;;;;4976052;28;20263;-85
2023/02/10 02:22:08;;;;;;;42.37;21.73;;;2.10;99.90;;;;;;4976030;28;20243;-85
2023/02/10 02:25:07;;;;;;;39.43;21.63;;;2.10;99.90;;;;;;4977313;28;20172;-86
2023/02/10 02:28:00;;;;;;;43.97;21.67;;;2.00;99.90;;;;;;4976353;28;20180;-86
2023/02/10 02:30:50;;;;;;;40.73;21.33;;;2.00;99.90;;;;;;4976212;28;20180;-85
2023/02/10 02:33:40;;;;;;;44.97;22.03;;;2.00;99.90;;;;;;4976337;28;20500;-85
2023/02/10 02:36:35;;;;;;;46.53;24.33;;;2.00;99.90;;;;;;4976295;28;20196;-86
2023/02/10 02:39:04;;;;;;;43.93;22.67;;;2.00;99.90;;;;;;4975977;28;20180;-85
2023/02/10 02:41:32;;;;;;;43.03;22.37;;;2.00;99.90;;;;;;4976043;28;20176;-85
2023/02/10 02:44:01;;;;;;;44.60;22.43;;;2.10;99.90;;;;;;4975994;28;20215;-85
2023/02/10 02:46:49;;;;;;;47.27;22.33;;;2.00;99.90;;;;;;4976215;28;20176;-85
2023/02/10 02:49:28;;;;;;;40.73;22.00;;;2.10;99.90;;;;;;4975101;28;20553;-85
2023/02/10 02:51:57;;;;;;;37.73;22.00;;;2.00;99.90;;;;;;4975184;28;20184;-87
2023/02/10 02:54:32;;;;;;;40.73;21.70;;;2.00;99.90;;;;;;4975224;28;20216;-85
2023/02/10 02:57:18;;;;;;;44.20;22.20;;;2.10;99.90;;;;;;4976776;28;20169;-86
2023/02/10 02:59:53;;;;;;;39.93;22.00;;;2.00;99.90;;;;;;4975771;28;20204;-86
2023/02/10 03:02:20;;;;;;;41.13;22.70;;;2.10;99.90;;;;;;4974789;28;20179;-87
2023/02/10 03:04:48;;;;;;;44.03;22.97;;;2.00;99.90;;;;;;4977033;28;20169;-86
2023/02/10 03:07:14;;;;;;;45.07;21.50;;;2.00;99.90;;;;;;4975195;28;20173;-85
2023/02/10 03:09:41;;;;;;;42.63;22.33;;;2.00;99.90;;;;;;4975393;28;20184;-85
2023/02/10 03:12:06;;;;;;;42.67;22.93;;;2.00;99.90;;;;;;4975698;28;20177;-86
2023/02/10 03:14:32;;;;;;;41.50;21.93;;;2.00;99.90;;;;;;4975510;28;20211;-85
2023/02/10 03:16:58;;;;;;;41.37;22.43;;;2.00;99.90;;;;;;4975410;28;20173;-87
2023/02/10 03:19:24;;;;;;;46.53;23.90;;;2.10;99.90;;;;;;4975125;28;20176;-87
2023/02/10 03:21:49;;;;;;;44.03;22.83;;;2.10;99.90;;;;;;4975033;28;21021;-86
2023/02/10 03:24:16;;;;;;;50.50;23.50;;;2.10;99.90;;;;;;4975013;28;20188;-85
2023/02/10 03:26:43;;;;;;;51.77;24.73;;;2.00;99.90;;;;;;4975390;28;20184;-87
2023/02/10 03:29:11;;;;;;;47.10;24.13;;;2.00;99.90;;;;;;4975166;28;20181;-86
2023/02/10 03:31:37;;;;;;;45.67;23.60;;;2.00;99.90;;;;;;4974955;28;20184;-85
2023/02/10 03:34:02;;;;;;;46.23;24.20;;;2.00;99.90;;;;;;4975039;28;20231;-85
2023/02/10 03:36:28;;;;;;;48.07;24.23;;;2.10;99.90;;;;;;4975186;28;20673;-85
2023/02/10 03:38:54;;;;;;;46.70;24.30;;;2.10;99.90;;;;;;4974418;28;20176;-85
2023/02/10 03:41:20;;;;;;;45.60;24.27;;;2.20;99.90;;;;;;4974906;28;20612;-85
2023/02/10 03:43:45;;;;;;;48.00;24.57;;;2.20;99.90;;;;;;4974765;28;20173;-85
2023/02/10 03:46:11;;;;;;;49.63;24.93;;;2.20;99.90;;;;;;4974675;28;20223;-88
2023/02/10 03:48:37;;;;;;;47.67;24.23;;;2.20;99.90;;;;;;4974536;28;20188;-84
2023/02/10 03:51:06;;;;;;;46.33;23.40;;;2.20;99.90;;;;;;4974819;28;20196;-87
2023/02/10 03:53:35;;;;;;;47.23;23.47;;;2.10;99.90;;;;;;4958779;28;20573;-88
2023/02/10 03:56:01;;;;;;;49.07;23.70;;;2.10;99.90;;;;;;4955893;29;20200;-88
2023/02/10 03:58:26;;;;;;;55.27;24.80;;;2.10;99.90;;;;;;4955684;29;20185;-87
2023/02/10 04:00:53;;;;;;;51.07;24.70;;;2.10;99.90;;;;;;4956609;28;20277;-86
2023/02/10 04:03:19;;;;;;;53.13;23.93;;;2.10;99.90;;;;;;4960379;28;20177;-87
2023/02/10 04:05:45;;;;;;;46.73;24.77;;;2.10;99.90;;;;;;4959809;29;20632;-86
2023/02/10 04:08:11;;;;;;;49.67;24.93;;;2.10;99.90;;;;;;4958985;29;20177;-87
2023/02/10 04:10:37;;;;;;;43.47;24.20;;;2.10;99.90;;;;;;4959388;29;20671;-85
2023/02/10 04:13:03;;;;;;;51.60;26.37;;;2.10;99.90;;;;;;4959350;29;20200;-85
2023/02/10 04:15:31;;;;;;;49.17;25.27;;;2.10;99.90;;;;;;4959165;29;20307;-87
2023/02/10 04:17:56;;;;;;;53.73;26.10;;;2.10;99.90;;;;;;4959326;29;20208;-88
2023/02/10 04:20:23;;;;;;;50.43;24.63;;;2.10;99.90;;;;;;4959079;29;20269;-86
2023/02/10 04:22:49;;;;;;;56.17;26.43;;;2.10;99.90;;;;;;4969599;28;20212;-86
2023/02/10 04:25:22;;;;;;;50.73;24.83;;;2.10;99.90;;;;;;4978582;28;20184;-86
2023/02/10 04:27:47;;;;;;;55.37;25.70;;;2.10;99.90;;;;;;4978592;28;20691;-87
2023/02/10 04:30:13;;;;;;;48.67;24.63;;;2.20;99.90;;;;;;4978431;28;20219;-85
2023/02/10 04:32:39;;;;;;;45.97;24.93;;;2.20;99.90;;;;;;4978239;28;20185;-88
2023/02/10 04:35:06;;;;;;;48.00;25.23;;;2.10;99.90;;;;;;4978420;28;20721;-86
2023/02/10 04:37:31;;;;;;;47.50;25.50;;;2.10;99.90;;;;;;4978049;28;20190;-85
2023/02/10 04:39:57;;;;;;;44.60;23.80;;;2.10;99.90;;;;;;4979192;28;20255;-85
2023/02/10 04:42:29;;;;;;;48.17;23.60;;;2.20;99.90;;;;;;4978332;28;20287;-84
2023/02/10 04:44:57;;;;;;;43.37;23.33;;;2.20;99.90;;;;;;4979159;28;20169;-85
2023/02/10 04:47:24;;;;;;;45.00;24.17;;;2.10;99.90;;;;;;4978116;28;20587;-86
2023/02/10 04:49:53;;;;;;;48.63;24.93;;;2.10;99.90;;;;;;4977819;28;20532;-86
2023/02/10 04:52:19;;;;;;;47.10;24.23;;;2.20;99.90;;;;;;4977786;28;20180;-88
2023/02/10 04:54:47;;;;;;;44.57;23.87;;;2.20;99.90;;;;;;4977856;28;20224;-87
2023/02/10 04:57:13;;;;;;;46.33;23.23;;;2.10;99.90;;;;;;4978145;28;20604;-86
2023/02/10 04:59:38;;;;;;;46.27;23.60;;;2.20;99.90;;;;;;4978731;28;20183;-86
2023/02/10 05:02:04;;;;;;;44.57;22.50;;;2.20;99.90;;;;;;4977898;28;20747;-86
2023/02/10 05:04:30;;;;;;;47.87;23.90;;;2.20;99.90;;;;;;4978247;28;20173;-87
2023/02/10 05:06:58;;;;;;;46.30;22.90;;;2.20;99.90;;;;;;4977665;28;20259;-86
2023/02/10 05:09:24;;;;;;;44.30;23.60;;;2.20;99.90;;;;;;4963986;28;20185;-87
2023/02/10 05:11:50;;;;;;;46.17;24.60;;;2.20;99.90;;;;;;4957906;28;20185;-89
2023/02/10 05:14:18;;;;;;;46.97;22.43;;;2.20;99.90;;;;;;4957561;28;20540;-90
2023/02/10 05:16:44;;;;;;;42.93;23.00;;;2.20;99.90;;;;;;4958079;29;20648;-90
2023/02/10 05:19:09;;;;;;;52.47;25.83;;;2.20;99.90;;;;;;4958994;28;20181;-88
2023/02/10 05:21:35;;;;;;;45.70;23.87;;;2.20;99.90;;;;;;4958765;28;20264;-88
2023/02/10 05:24:01;;;;;;;40.47;23.20;;;2.30;99.90;;;;;;4960301;29;20181;-89
2023/02/10 05:26:27;;;;;;;44.17;24.60;;;2.20;99.90;;;;;;4957902;28;20178;-89
2023/02/10 05:28:53;;;;;;;45.20;24.23;;;2.20;99.90;;;;;;4957886;29;20212;-88
2023/02/10 05:31:19;;;;;;;44.33;23.47;;;2.20;99.90;;;;;;4957463;29;20181;-88
2023/02/10 05:33:45;;;;;;;40.77;23.33;;;2.20;99.90;;;;;;4957765;28;20185;-89
2023/02/10 05:36:16;;;;;;;42.33;23.03;;;2.10;99.90;;;;;;4968207;28;20199;-88
2023/02/10 05:39:22;;;;;;;47.47;24.40;;;2.20;99.90;;;;;;4977085;28;20509;-87
2023/02/10 05:41:30;;;;;;;47.27;25.53;;;2.20;99.90;;;;;;4978093;28;20238;-87
2023/02/10 05:43:55;;;;;;;47.33;23.93;;;2.20;99.90;;;;;;4977298;28;20268;-88
2023/02/10 05:46:40;;;;;;;47.20;24.37;;;2.20;99.90;;;;;;4977180;28;20508;-85
2023/02/10 05:49:06;;;;;;;37.77;22.53;;;2.20;99.90;;;;;;4976899;28;20180;-85
2023/02/10 05:51:32;;;;;;;44.93;22.57;;;2.30;99.90;;;;;;4976988;28;20259;-87
2023/02/10 05:53:58;;;;;;;42.63;22.37;;;2.20;99.90;;;;;;4977660;28;20243;-86
2023/02/10 05:56:23;;;;;;;45.27;25.03;;;2.30;99.90;;;;;;4976886;28;20189;-86
2023/02/10 05:58:49;;;;;;;46.87;21.93;;;2.20;99.90;;;;;;4976999;28;20181;-89
2023/02/10 06:01:15;;;;;;;54.47;24.00;;;2.20;99.90;;;;;;4976937;28;20211;-87
2023/02/10 06:03:41;;;;;;;46.90;23.70;;;2.20;99.90;;;;;;4976658;28;20195;-85
2023/02/10 06:06:07;;;;;;;41.57;23.20;;;2.20;99.90;;;;;;4976576;28;20192;-85
2023/02/10 06:08:32;;;;;;;46.47;24.23;;;2.20;99.90;;;;;;4976544;28;20184;-86
2023/02/10 06:10:58;;;;;;;50.13;24.70;;;2.20;99.90;;;;;;4976509;28;20189;-85
2023/02/10 06:13:24;;;;;;;45.90;23.10;;;2.20;99.90;;;;;;4976774;28;20219;-86
2023/02/10 06:15:53;;;;;;;39.57;21.83;;;2.30;99.90;;;;;;4976622;28;20216;-89
2023/02/10 06:18:18;;;;;;;40.83;21.30;;;2.30;99.90;;;;;;4976637;28;20263;-88
2023/02/10 06:20:47;;;;;;;38.17;22.70;;;2.30;99.90;;;;;;4976112;28;20327;-86
2023/02/10 06:23:14;;;;;;;43.40;22.87;;;2.30;99.90;;;;;;4976300;28;20569;-86
2023/02/10 06:25:40;;;;;;;46.03;22.57;;;2.30;99.90;;;;;;4975508;28;20552;-86
2023/02/10 06:28:06;;;;;;;50.13;24.10;;;2.30;99.90;;;;;;4976369;28;20227;-87
2023/02/10 06:30:31;;;;;;;42.10;23.50;;;2.30;99.90;;;;;;4977289;28;20183;-86
2023/02/10 06:32:57;;;;;;;43.80;22.07;;;2.30;99.90;;;;;;4976186;28;20180;-90
2023/02/10 06:35:25;;;;;;;41.43;22.73;;;2.30;99.90;;;;;;4977351;28;20209;-86
2023/02/10 06:37:50;;;;;;;41.13;22.13;;;2.40;99.90;;;;;;4976090;28;20184;-88
2023/02/10 06:40:16;;;;;;;48.97;22.60;;;2.30;99.90;;;;;;4975966;28;20248;-87
2023/02/10 06:42:42;;;;;;;37.73;20.23;;;2.30;99.90;;;;;;4976995;28;20177;-90
2023/02/10 06:45:09;;;;;;;38.70;22.03;;;2.40;99.90;;;;;;4976012;28;20612;-85
2023/02/10 06:47:36;;;;;;;36.13;21.43;;;2.40;99.90;;;;;;4975857;28;20184;-89
2023/02/10 06:50:03;;;;;;;42.07;21.37;;;2.40;99.90;;;;;;4975806;28;20180;-87
2023/02/10 06:52:31;;;;;;;40.43;20.97;;;2.40;99.90;;;;;;4975772;28;20188;-90
2023/02/10 06:54:57;;;;;;;42.33;22.43;;;2.40;99.90;;;;;;4975822;28;20215;-87
2023/02/10 06:57:23;;;;;;;42.30;21.53;;;2.40;99.90;;;;;;4975715;28;20173;-88
2023/02/10 06:59:49;;;;;;;38.10;21.57;;;2.40;99.90;;;;;;4975960;28;20188;-86
2023/02/10 07:02:14;;;;;;;39.03;21.63;;;2.30;99.90;;;;;;4975659;28;20176;-90
2023/02/10 07:04:40;;;;;;;39.10;20.80;;;2.40;99.90;;;;;;4975451;28;20180;-86
2023/02/10 07:07:11;;;;;;;41.93;22.43;;;2.40;99.90;;;;;;4957666;28;20188;-86
2023/02/10 07:09:37;;;;;;;43.50;21.83;;;2.40;99.90;;;;;;4955950;29;20216;-87
2023/02/10 07:12:03;;;;;;;44.60;21.53;;;2.40;99.90;;;;;;4955889;29;20184;-86
2023/02/10 07:14:29;;;;;;;37.77;20.53;;;2.40;99.90;;;;;;4956162;29;20537;-90
2023/02/10 07:16:55;;;;;;;43.73;20.97;;;2.40;99.90;;;;;;4956283;29;20189;-87
2023/02/10 07:19:21;;;;;;;37.17;20.80;;;2.40;99.90;;;;;;4956243;29;20169;-87
2023/02/10 07:21:47;;;;;;;38.47;20.93;;;2.40;99.90;;;;;;4956105;29;20319;-87
2023/02/10 07:24:14;;;;;;;43.13;21.77;;;2.50;99.90;;;;;;4956143;29;20182;-87
2023/02/10 07:26:46;;;;;;;41.00;19.93;;;2.40;99.90;;;;;;4956203;29;20613;-87
2023/02/10 07:29:12;;;;;;;39.33;20.63;;;2.40;99.90;;;;;;4956005;29;20185;-86
2023/02/10 07:31:37;;;;;;;39.17;20.77;;;2.50;99.90;;;;;;4956128;29;20180;-88
2023/02/10 07:34:03;;;;;;;41.93;20.53;;;2.50;99.90;;;;;;4956049;29;20212;-89
2023/02/10 07:36:32;;;;;;;39.93;20.67;;;2.50;99.90;;;;;;4968844;28;20184;-88
2023/02/10 07:38:58;;;;;;;44.03;19.93;;;2.50;99.90;;;;;;4974831;28;20184;-87
2023/02/10 07:41:23;;;;;;;35.63;19.60;;;2.50;99.90;;;;;;4974901;28;20195;-85
2023/02/10 07:43:49;;;;;;;41.20;19.23;;;2.60;99.90;;;;;;4975184;28;20180;-88
2023/02/10 07:46:20;;;;;;;38.53;19.93;;;2.60;99.90;;;;;;4975095;28;20199;-91
2023/02/10 07:48:46;;;;;;;37.80;20.17;;;2.60;99.90;;;;;;4974857;28;20276;-86
2023/02/10 07:51:11;;;;;;;39.43;20.13;;;2.60;99.90;;;;;;4974950;28;20275;-86
2023/02/10 07:53:37;;;;;;;40.87;20.37;;;2.60;99.90;;;;;;4975210;28;20212;-88
2023/02/10 07:56:05;;;;;;;36.77;19.40;;;2.70;99.90;;;;;;4974858;28;20675;-89
2023/02/10 07:58:31;;;;;;;42.50;20.73;;;2.70;99.90;;;;;;4974766;28;20191;-86
2023/02/10 08:00:56;;;;;;;38.40;20.83;;;2.70;99.90;;;;;;4974774;28;20188;-86
2023/02/10 08:03:22;;;;;;;40.83;20.53;;;2.70;99.90;;;;;;4974404;28;20184;-87
2023/02/10 08:05:53;;;;;;;43.13;20.07;;;2.70;99.90;;;;;;4967123;28;20204;-87
2023/02/10 08:08:19;;;;;;;36.90;20.23;;;2.70;99.90;;;;;;4956692;28;20173;-90
2023/02/10 08:10:44;;;;;;;46.33;21.53;;;2.80;99.90;;;;;;4974191;28;20185;-87
2023/02/10 08:13:10;;;;;;;41.80;22.33;;;2.80;99.90;;;;;;4974822;28;20636;-86
2023/02/10 08:15:42;;;;;;;44.87;21.23;;;2.80;99.90;;;;;;4974913;28;20212;-88
2023/02/10 08:18:08;;;;;;;37.00;19.40;;;2.80;99.90;;;;;;4974737;28;20259;-89
2023/02/10 08:20:33;;;;;;;43.53;21.17;;;2.90;99.90;;;;;;4974515;28;20687;-88
2023/02/10 08:22:59;;;;;;;43.30;20.67;;;2.90;99.90;;;;;;4974383;28;20176;-87
2023/02/10 08:25:25;;;;;;;43.73;20.37;;;2.90;99.90;;;;;;4974506;28;20192;-87
2023/02/10 08:27:57;;;;;;;48.83;21.63;;;2.90;99.90;;;;;;4975735;28;20220;-87
2023/02/10 08:30:24;;;;;;;37.87;20.53;;;2.90;99.90;;;;;;4974532;28;20184;-84
2023/02/10 08:32:49;;;;;;;42.03;21.43;;;2.90;99.90;;;;;;4974709;28;20176;-85
2023/02/10 08:35:15;;;;;;;39.37;20.93;;;2.90;99.90;;;;;;4974607;28;20243;-87
2023/02/10 08:37:46;;;;;;;40.17;20.27;;;3.00;99.90;;;;;;4974503;28;20231;-84
2023/02/10 08:40:11;;;;;;;40.07;20.93;;;3.00;99.90;;;;;;4957784;28;20282;-86
2023/02/10 08:42:37;;;;;;;40.40;21.23;;;3.00;99.90;;;;;;4955230;28;20665;-88
2023/02/10 08:45:04;;;;;;;42.13;21.60;;;3.10;99.90;;;;;;4955174;28;20185;-89
2023/02/10 08:47:30;;;;;;;40.10;19.47;;;3.10;99.90;;;;;;4955699;28;20178;-86
2023/02/10 08:49:55;;;;;;;43.47;20.93;;;3.10;99.90;;;;;;4959800;28;20240;-87
2023/02/10 08:52:22;;;;;;;38.57;20.57;;;3.10;99.90;;;;;;4958752;28;20177;-86
2023/02/10 08:54:48;;;;;;;42.27;20.20;;;3.10;99.90;;;;;;4958058;28;20237;-85
2023/02/10 08:57:15;;;;;;;42.63;21.43;;;3.20;99.90;;;;;;4958839;29;20173;-87
2023/02/10 08:59:40;;;;;;;42.87;20.83;;;3.20;99.90;;;;;;4958520;28;20177;-86
2023/02/10 09:02:06;;;;;;;37.47;20.00;;;3.30;99.90;;;;;;4959717;28;20196;-86
2023/02/10 09:04:32;;;;;;;39.87;20.40;;;3.30;99.90;;;;;;4958624;28;20232;-87
2023/02/10 09:06:59;;;;;;;42.97;20.87;;;3.30;99.90;;;;;;4971478;28;20235;-88
2023/02/10 09:09:26;;;;;;;39.17;21.30;;;3.40;99.90;;;;;;4977455;28;20670;-88
2023/02/10 09:11:53;;;;;;;49.07;21.83;;;3.40;99.90;;;;;;4977587;28;20181;-87
2023/02/10 09:14:19;;;;;;;46.70;22.53;;;3.40;99.90;;;;;;4977639;28;20279;-88
2023/02/10 09:16:53;;;;;;;40.67;20.73;;;3.40;99.90;;;;;;4977686;28;20283;-88
2023/02/10 09:19:20;;;;;;;42.67;22.00;;;3.40;99.90;;;;;;4978512;28;20169;-85
2023/02/10 09:21:45;;;;;;;48.00;21.80;;;3.50;99.90;;;;;;4977116;28;20228;-87
2023/02/10 09:24:11;;;;;;;43.97;21.73;;;3.50;99.90;;;;;;4977071;28;20522;-85
2023/02/10 09:26:37;;;;;;;44.53;22.60;;;3.60;99.90;;;;;;4977154;28;20203;-88
2023/02/10 09:29:03;;;;;;;45.47;21.97;;;3.60;99.90;;;;;;4977135;28;20646;-89
2023/02/10 09:31:28;;;;;;;42.90;22.17;;;3.60;99.90;;;;;;4976998;28;20181;-88
2023/02/10 09:33:54;;;;;;;43.73;21.47;;;3.60;99.90;;;;;;4976860;28;20219;-86
2023/02/10 09:36:27;;;;;;;44.13;21.83;;;3.60;99.90;;;;;;4976963;28;20240;-89
2023/02/10 09:38:55;;;;;;;49.60;22.43;;;3.70;99.90;;;;;;4976878;28;20180;-88
2023/02/10 09:41:26;;;;;;;45.17;21.43;;;3.70;99.90;;;;;;4976510;28;20177;-87
2023/02/10 09:44:20;;;;;;;44.27;20.73;;;3.70;99.90;;;;;;4977267;28;20169;-86
2023/02/10 09:46:59;;;;;;;43.83;22.43;;;3.70;99.90;;;;;;4976650;28;20623;-85
2023/02/10 09:49:44;;;;;;;42.80;21.70;;;3.70;99.90;;;;;;4976640;28;20176;-86
2023/02/10 09:52:34;;;;;;;47.27;22.03;;;3.80;99.90;;;;;;4977925;28;20165;-89
2023/02/10 09:55:00;;;;;;;38.83;21.20;;;3.90;99.90;;;;;;4975990;28;20217;-90
2023/02/10 09:57:40;;;;;;;47.13;22.13;;;3.90;99.90;;;;;;4977849;28;20173;-87
2023/02/10 10:00:24;;;;;;;43.07;20.77;;;4.00;99.90;;;;;;4977791;28;20179;-87
2023/02/10 10:02:54;;;;;;;46.33;22.33;;;4.10;99.90;;;;;;4977575;28;20181;-87
2023/02/10 10:05:44;;;;;;;39.67;21.63;;;4.20;99.90;;;;;;4976353;28;20192;-88
2023/02/10 10:08:27;;;;;;;43.10;22.53;;;4.20;99.90;;;;;;4992163;28;20185;-89
2023/02/10 10:10:56;;;;;;;48.07;22.27;;;4.30;99.90;;;;;;4976238;28;20284;-84
2023/02/10 10:13:25;;;;;;;46.97;22.27;;;4.40;99.90;;;;;;4976211;28;20657;-83
2023/02/10 10:16:09;;;;;;;48.87;22.70;;;4.40;99.90;;;;;;4976551;28;20216;-87
2023/02/10 10:18:57;;;;;;;44.97;21.40;;;4.40;99.90;;;;;;4976742;28;20616;-90
2023/02/10 10:21:29;;;;;;;51.17;24.27;;;4.60;99.90;;;;;;4976208;28;20235;-86
2023/02/10 10:24:24;;;;;;;45.83;22.87;;;4.60;99.90;;;;;;4976386;28;20231;-86
2023/02/10 10:27:14;;;;;;;42.17;22.17;;;4.60;99.90;;;;;;4976479;28;20687;-88
2023/02/10 10:29:43;;;;;;;49.60;24.00;;;4.60;99.90;;;;;;4975962;28;20604;-85
2023/02/10 10:32:17;;;;;;;41.87;23.03;;;4.50;99.90;;;;;;4976155;28;20561;-88
2023/02/10 10:34:52;;;;;;;43.07;21.73;;;4.60;99.90;;;;;;4975882;28;20204;-87
2023/02/10 10:37:24;;;;;;;44.30;21.70;;;4.60;99.90;;;;;;4975833;28;20188;-86
2023/02/10 10:39:53;;;;;;;49.10;24.67;;;4.50;99.90;;;;;;4976234;28;20228;-88
2023/02/10 10:42:29;;;;;;;42.63;23.07;;;4.60;99.90;;;;;;4976142;28;20173;-89
2023/02/10 10:45:02;;;;;;;49.07;22.73;;;4.60;99.90;;;;;;4975322;28;20236;-88
2023/02/10 10:47:39;;;;;;;50.77;23.37;;;4.50;99.90;;;;;;4975463;28;20259;-87
2023/02/10 10:50:05;;;;;;;50.50;23.97;;;4.50;99.90;;;;;;4975779;28;20692;-87
2023/02/10 10:52:36;;;;;;;48.00;23.73;;;4.40;99.90;;;;;;4972258;28;20188;-89
2023/02/10 10:55:07;;;;;;;50.00;24.37;;;4.50;99.90;;;;;;4968644;28;20221;-87
2023/02/10 10:57:34;;;;;;;50.13;24.83;;;4.50;99.90;;;;;;4956772;29;20181;-87
2023/02/10 11:00:21;;;;;;;54.93;24.53;;;4.40;99.90;;;;;;4956256;29;20280;-89
2023/02/10 11:03:01;;;;;;;53.37;24.40;;;4.40;99.90;;;;;;4956556;29;20260;-90
2023/02/10 11:05:36;;;;;;;56.27;25.17;;;4.40;99.90;;;;;;4957788;28;20645;-91
2023/02/10 11:08:21;;;;;;;51.57;25.60;;;4.40;99.90;;;;;;4975927;28;20196;-88
2023/02/10 11:10:57;;;;;;;48.77;25.33;;;4.40;99.90;;;;;;4974882;28;20199;-91
2023/02/10 11:13:26;;;;;;;56.53;25.27;;;4.50;99.90;;;;;;4975487;28;20191;-88
2023/02/10 11:16:15;;;;;;;55.10;25.10;;;4.50;99.90;;;;;;4976701;28;20208;-88
2023/02/10 11:18:51;;;;;;;48.90;24.37;;;4.60;99.90;;;;;;4975211;28;20201;-90
2023/02/10 11:21:17;;;;;;;52.07;25.13;;;4.60;99.90;;;;;;4975072;28;20232;-88
2023/02/10 11:23:51;;;;;;;51.17;25.27;;;4.60;99.90;;;;;;4975540;28;20239;-87
2023/02/10 11:26:23;;;;;;;50.13;25.47;;;4.80;99.90;;;;;;4975073;28;20199;-87
2023/02/10 11:28:51;;;;;;;57.20;25.60;;;4.80;99.90;;;;;;4975393;28;20183;-85
2023/02/10 11:31:29;;;;;;;46.27;24.63;;;4.80;99.90;;;;;;4975123;28;20172;-90
2023/02/10 11:34:15;;;;;;;53.33;23.77;;;4.90;99.90;;;;;;4975595;28;20160;-92
2023/02/10 11:36:42;;;;;;;57.67;25.80;;;4.90;99.90;;;;;;4975401;28;20180;-90
2023/02/10 11:39:42;;;;;;;55.00;24.67;;;5.00;99.90;;;;;;4975076;28;20199;-91
2023/02/10 11:42:20;;;;;;;53.23;25.93;;;5.00;99.90;;;;;;4975867;28;20216;-91
2023/02/10 11:44:56;;;;;;;53.07;25.50;;;5.00;99.90;;;;;;4974583;28;20176;-88
2023/02/10 11:47:23;;;;;;;57.90;26.50;;;5.10;99.90;;;;;;4974118;28;20208;-81
2023/02/10 11:49:49;;;;;;;55.53;26.10;;;4.90;99.90;;;;;;4974159;28;20199;-84
2023/02/10 11:52:19;;;;;;;52.23;25.73;;;4.90;99.90;;;;;;4974576;28;20184;-89
2023/02/10 11:54:45;;;;;;;53.70;26.03;;;4.80;99.90;;;;;;4974813;28;20208;-89
2023/02/10 12:03:20;;;;;;;54.13;26.20;;;4.90;99.90;;;;;;4975680;28;20234;-85
2023/02/10 12:06:08;;;;;;;54.57;26.30;;;4.80;99.90;;;;;;4974451;28;20202;-88
2023/02/10 12:09:10;;;;;;;57.17;26.20;;;4.80;99.90;;;;;;4974934;28;20674;-87
2023/02/10 12:11:59;;;;;;;52.53;25.90;;;4.80;99.90;;;;;;4974886;28;20222;-86
2023/02/10 12:14:50;;;;;;;53.53;27.10;;;4.90;99.90;;;;;;4974873;28;20208;-90
2023/02/10 12:17:30;;;;;;;54.97;25.87;;;5.00;99.90;;;;;;4963684;28;20192;-86
2023/02/10 12:20:17;;;;;;;60.50;26.80;;;5.10;99.90;;;;;;4974561;28;20212;-87
2023/02/10 12:22:52;;;;;;;58.07;25.80;;;5.20;99.90;;;;;;4976743;28;20279;-87
2023/02/10 12:25:32;;;;;;;54.53;26.80;;;5.30;99.90;;;;;;4978201;28;20222;-87
2023/02/10 12:28:24;;;;;;;50.93;26.20;;;5.50;99.90;;;;;;4979219;28;20200;-88
2023/02/10 12:31:04;;;;;;;52.27;25.37;;;5.60;99.90;;;;;;4983751;28;20506;-88
2023/02/10 12:34:00;;;;;;;56.63;24.07;;;5.60;99.90;;;;;;4978237;28;20271;-86
2023/02/10 12:37:06;;;;;;;54.90;25.13;;;5.80;99.90;;;;;;4978247;28;20195;-86
2023/02/10 12:39:56;;;;;;;53.27;23.10;;;5.90;99.90;;;;;;4977531;28;20247;-86
2023/02/10 12:42:47;;;;;;;49.37;23.77;;;6.00;99.90;;;;;;4978347;28;20172;-85
2023/02/10 12:45:57;;;;;;;45.43;22.37;;;6.00;99.90;;;;;;4977870;28;20588;-85
2023/02/10 12:48:51;;;;;;;47.13;21.70;;;6.00;99.90;;;;;;4961778;28;20694;-86
2023/02/10 12:51:26;;;;;;;48.87;22.57;;;6.00;99.90;;;;;;4977760;28;20173;-87
2023/02/10 12:54:05;;;;;;;49.57;21.70;;;6.00;99.90;;;;;;4979066;28;20175;-85
2023/02/10 12:56:42;;;;;;;45.73;22.00;;;6.00;99.90;;;;;;4977356;28;20612;-82
2023/02/10 12:59:54;;;;;;;43.60;20.80;;;5.90;99.90;;;;;;4977223;28;20628;-80